ADDS METAR Data INFO
IDs: Format: Raw Decoded Include TAF

Data at: 2305 UTC 16 Jan 2018

K6A2 162255Z AUTO 29007KT 10SM OVC038 10/01 A3033 RMK AO2
K6A2 162235Z AUTO 28006KT 10SM OVC038 10/00 A3033 RMK AO2
K6A2 162215Z AUTO 30006KT 10SM OVC040 10/00 A3033 RMK AO2
K6A2 162155Z AUTO 30007KT 10SM OVC042 11/00 A3033 RMK AO2
K6A2 162135Z AUTO 31003KT 10SM OVC044 11/00 A3032 RMK AO2
K6A2 162115Z AUTO 29005KT 10SM OVC046 11/00 A3032 RMK AO2
K6A2 162055Z AUTO 29005KT 10SM OVC046 11/00 A3032 RMK AO2
K6A2 162035Z AUTO 28004KT 10SM OVC050 11/00 A3032 RMK AO2
K6A2 162015Z AUTO 00000KT 10SM BKN060 BKN110 12/M01 A3032 RMK AO2
K6A2 161955Z AUTO 24007KT 10SM BKN110 12/M01 A3034 RMK AO2
K6A2 161935Z AUTO 27006KT 10SM SCT110 12/M01 A3035 RMK AO2
K6A2 161915Z AUTO 27008KT 10SM CLR 12/M01 A3035 RMK AO2
K6A2 161855Z AUTO 23003KT 10SM CLR 12/M01 A3035 RMK AO2
K6A2 161835Z AUTO 26007KT 10SM CLR 12/M01 A3036 RMK AO2
K6A2 161815Z AUTO 25008KT 10SM CLR 12/M01 A3037 RMK AO2
K6A2 161755Z AUTO 22007KT 190V260 10SM CLR 12/M02 A3038 RMK AO2
K6A2 161735Z AUTO 24005KT 10SM CLR 11/M02 A3038 RMK AO2
K6A2 161715Z AUTO 24004KT 10SM CLR 11/M02 A3039 RMK AO2
K6A2 161655Z AUTO 23003KT 10SM CLR 11/M02 A3041 RMK AO2
K6A2 161635Z AUTO 20006KT 10SM CLR 10/M02 A3041 RMK AO2
K6A2 161615Z AUTO 16003KT 10SM CLR 09/M02 A3042 RMK AO2
K6A2 161555Z AUTO 24004KT 10SM CLR 09/M02 A3042 RMK AO2
K6A2 161535Z AUTO 18005KT 10SM CLR 08/M02 A3042 RMK AO2
K6A2 161515Z AUTO 18007KT 10SM CLR 06/M03 A3042 RMK AO2
K6A2 161455Z AUTO 17006KT 10SM CLR 06/M03 A3042 RMK AO2
K6A2 161435Z AUTO 19007KT 10SM CLR 04/M03 A3042 RMK AO2
K6A2 161415Z AUTO 19005KT 10SM CLR 03/M03 A3041 RMK AO2
K6A2 161355Z AUTO 18006KT 10SM CLR 02/M03 A3041 RMK AO2
K6A2 161335Z AUTO 16004KT 10SM CLR 01/M02 A3040 RMK AO2
K6A2 161315Z AUTO 17003KT 10SM CLR 00/M03 A3040 RMK AO2
K6A2 161255Z AUTO 00000KT 10SM CLR 00/M03 A3040 RMK AO2
K6A2 161235Z AUTO 16003KT 10SM CLR 00/M03 A3040 RMK AO2
K6A2 161215Z AUTO 16003KT 10SM CLR M01/M02 A3040 RMK AO2
K6A2 161155Z AUTO 15003KT 10SM CLR 00/M03 A3040 RMK AO2
K6A2 161135Z AUTO 16003KT 10SM CLR M01/M02 A3040 RMK AO2
K6A2 161115Z AUTO 00000KT 10SM CLR 00/M03 A3040 RMK AO2
K6A2 161055Z AUTO 00000KT 10SM CLR 00/M03 A3040 RMK AO2
K6A2 161035Z AUTO 00000KT 10SM CLR 00/M03 A3040 RMK AO2
K6A2 161015Z AUTO 00000KT 10SM CLR 00/M03 A3040 RMK AO2
K6A2 160955Z AUTO 00000KT 10SM CLR 00/M03 A3040 RMK AO2
K6A2 160935Z AUTO 00000KT 10SM CLR 00/M03 A3040 RMK AO2
K6A2 160915Z AUTO 00000KT 10SM CLR 00/M03 A3040 RMK AO2
K6A2 160855Z AUTO 00000KT 10SM CLR 00/M03 A3040 RMK AO2
K6A2 160835Z AUTO 00000KT 10SM CLR 00/M03 A3040 RMK AO2
K6A2 160815Z AUTO 00000KT 10SM CLR 00/M03 A3040 RMK AO2
K6A2 160755Z AUTO 00000KT 10SM CLR 00/M03 A3040 RMK AO2
K6A2 160735Z AUTO 00000KT 10SM CLR 00/M03 A3041 RMK AO2
K6A2 160715Z AUTO 00000KT 10SM CLR 00/M03 A3040 RMK AO2
K6A2 160655Z AUTO 00000KT 10SM CLR 00/M03 A3040 RMK AO2
K6A2 160635Z AUTO 00000KT 10SM CLR 00/M03 A3040 RMK AO2
K6A2 160615Z AUTO 00000KT 10SM CLR 00/M03 A3040 RMK AO2
K6A2 160555Z AUTO 00000KT 10SM CLR 00/M02 A3040 RMK AO2
K6A2 160535Z AUTO 00000KT 10SM CLR 01/M03 A3041 RMK AO2
K6A2 160515Z AUTO 00000KT 10SM CLR 00/M03 A3041 RMK AO2
K6A2 160455Z AUTO 00000KT 10SM CLR 01/M03 A3041 RMK AO2
K6A2 160435Z AUTO 00000KT 10SM CLR 00/M02 A3041 RMK AO2
K6A2 160415Z AUTO 00000KT 10SM CLR 02/M03 A3042 RMK AO2
K6A2 160355Z AUTO 00000KT 10SM CLR 01/M03 A3042 RMK AO2
K6A2 160335Z AUTO 00000KT 10SM CLR 01/M02 A3042 RMK AO2
K6A2 160315Z AUTO 00000KT 10SM CLR 01/M02 A3042 RMK AO2
K6A2 160255Z AUTO 00000KT 10SM CLR 02/M03 A3042 RMK AO2
K6A2 160235Z AUTO 00000KT 10SM CLR 02/M03 A3041 RMK AO2
K6A2 160215Z AUTO 00000KT 10SM CLR 02/M03 A3041 RMK AO2
K6A2 160155Z AUTO 00000KT 10SM CLR 02/M03 A3040 RMK AO2
K6A2 160135Z AUTO 00000KT 10SM CLR 03/M03 A3040 RMK AO2
K6A2 160115Z AUTO 00000KT 10SM CLR 03/M03 A3040 RMK AO2
K6A2 160055Z AUTO 00000KT 10SM CLR 03/M02 A3040 RMK AO2
K6A2 160035Z AUTO 00000KT 10SM CLR 03/M02 A3039 RMK AO2
K6A2 160015Z AUTO 00000KT 10SM CLR 03/M03 A3039 RMK AO2
K6A2 152355Z AUTO 00000KT 10SM CLR 05/M03 A3039 RMK AO2
K6A2 152335Z AUTO 00000KT 10SM CLR 05/M03 A3038 RMK AO2
K6A2 152315Z AUTO 00000KT 10SM CLR 06/M03 A3038 RMK AO2
K6A2 152255Z AUTO 00000KT 10SM CLR 07/M03 A3038 RMK AO2
K6A2 152235Z AUTO 00000KT 10SM CLR 09/M03 A3038 RMK AO2
K6A2 152215Z AUTO 00000KT 10SM CLR 10/M04 A3038 RMK AO2
K6A2 152155Z AUTO 00000KT 10SM CLR 10/M04 A3039 RMK AO2
K6A2 152135Z AUTO 19004KT 10SM CLR 10/M04 A3038 RMK AO2
K6A2 152115Z AUTO 00000KT 10SM CLR 10/M05 A3039 RMK AO2
K6A2 152055Z AUTO 00000KT 10SM CLR 10/M05 A3038 RMK AO2
K6A2 152035Z AUTO 23004KT 10SM CLR 10/M05 A3039 RMK AO2
K6A2 152015Z AUTO 00000KT 10SM CLR 10/M05 A3039 RMK AO2
K6A2 151955Z AUTO 00000KT 10SM CLR 10/M05 A3039 RMK AO2
K6A2 151935Z AUTO 28005KT 10SM CLR 09/M05 A3039 RMK AO2
K6A2 151915Z AUTO 19003KT 10SM CLR 10/M06 A3039 RMK AO2
K6A2 151855Z AUTO 00000KT 10SM CLR 08/M06 A3040 RMK AO2
K6A2 151835Z AUTO 33004KT 10SM CLR 08/M06 A3041 RMK AO2
K6A2 151815Z AUTO 00000KT 10SM CLR 08/M06 A3042 RMK AO2
K6A2 151755Z AUTO 00000KT 10SM CLR 07/M06 A3044 RMK AO2
K6A2 151735Z AUTO 00000KT 10SM CLR 07/M06 A3045 RMK AO2
K6A2 151715Z AUTO 19003KT 10SM CLR 06/M05 A3046 RMK AO2
K6A2 151655Z AUTO 00000KT 10SM CLR 05/M06 A3048 RMK AO2
K6A2 151635Z AUTO 13003KT 10SM CLR 05/M05 A3049 RMK AO2
K6A2 151615Z AUTO 00000KT 10SM CLR 05/M05 A3049 RMK AO2
K6A2 151555Z AUTO 16003KT 10SM CLR 03/M05 A3050 RMK AO2
K6A2 151535Z AUTO 07003KT 10SM CLR 02/M06 A3050 RMK AO2
K6A2 151515Z AUTO 16006KT 10SM CLR 02/M05 A3050 RMK AO2
K6A2 151455Z AUTO 15005KT 10SM CLR 01/M05 A3050 RMK AO2
K6A2 151435Z AUTO 00000KT 10SM CLR 01/M05 A3050 RMK AO2
K6A2 151415Z AUTO 00000KT 10SM CLR 00/M05 A3050 RMK AO2
K6A2 151355Z AUTO 05005KT 10SM CLR 00/M06 A3049 RMK AO2
K6A2 151335Z AUTO 07004KT 10SM CLR M01/M06 A3049 RMK AO2
K6A2 151315Z AUTO 06004KT 10SM CLR M01/M06 A3048 RMK AO2
K6A2 151255Z AUTO 06003KT 10SM CLR M01/M06 A3047 RMK AO2
K6A2 151235Z AUTO 06004KT 10SM CLR M01/M06 A3048 RMK AO2
K6A2 151215Z AUTO 06003KT 10SM CLR M01/M06 A3047 RMK AO2
K6A2 151155Z AUTO 00000KT 10SM CLR M01/M06 A3046 RMK AO2
K6A2 151135Z AUTO 00000KT 10SM CLR M01/M06 A3045 RMK AO2
K6A2 151115Z AUTO 00000KT 10SM CLR M01/M06 A3045 RMK AO2